Time;durP1;ratioP1;P1;durP2;ratioP2;P2;SDS_P1;SDS_P2;PMS_P1;PMS_P2;Temp;Humidity;BMP_temperature;BMP_pressure;BME280_temperature;BME280_humidity;BME280_pressure;Samples;Min_cycle;Max_cycle;Signal;HPM_P1;HPM_P2
2021/10/29 00:02:12;;;;;;;5.03;1.10;;;24.60;62.30;;;;;;5074563;28;20024;-61
2021/10/29 00:04:40;;;;;;;4.53;1.23;;;24.60;62.60;;;;;;5073811;28;20394;-62
2021/10/29 00:07:08;;;;;;;5.18;1.10;;;24.70;61.90;;;;;;5075032;28;20146;-70
2021/10/29 00:09:37;;;;;;;3.72;0.80;;;24.70;61.80;;;;;;5074298;28;20399;-63
2021/10/29 00:12:05;;;;;;;7.05;0.90;;;24.70;61.80;;;;;;5074977;28;20028;-60
2021/10/29 00:14:34;;;;;;;2.92;1.08;;;24.70;61.70;;;;;;5074224;28;20483;-64
2021/10/29 00:17:02;;;;;;;3.92;1.20;;;24.70;62.00;;;;;;5074607;28;20074;-61
2021/10/29 00:19:30;;;;;;;6.95;1.13;;;24.60;62.30;;;;;;5074207;28;20020;-63
2021/10/29 00:21:58;;;;;;;2.60;0.93;;;24.70;62.10;;;;;;5073910;28;20476;-64
2021/10/29 00:24:26;;;;;;;5.55;0.95;;;24.70;62.40;;;;;;5073849;28;20076;-63
2021/10/29 00:26:53;;;;;;;3.25;1.10;;;24.70;62.90;;;;;;5072985;28;20074;-67
2021/10/29 00:29:21;;;;;;;5.93;1.20;;;24.60;62.60;;;;;;5073954;28;20079;-69
2021/10/29 00:31:50;;;;;;;4.07;1.25;;;24.60;62.80;;;;;;5074119;28;20021;-64
2021/10/29 00:34:18;;;;;;;3.20;1.02;;;24.60;62.90;;;;;;5073336;28;20032;-65
2021/10/29 00:36:46;;;;;;;3.03;1.15;;;24.70;62.20;;;;;;5072392;28;20032;-65
2021/10/29 00:39:16;;;;;;;3.70;1.23;;;24.70;62.60;;;;;;5072387;28;20562;-62
2021/10/29 00:41:44;;;;;;;12.27;5.45;;;24.70;62.40;;;;;;5073997;28;20472;-65
2021/10/29 00:44:12;;;;;;;28.77;13.10;;;24.70;62.40;;;;;;5072924;28;20043;-67
2021/10/29 00:46:39;;;;;;;199.27;84.43;;;24.90;62.20;;;;;;5072867;28;20032;-63
2021/10/29 00:49:06;;;;;;;256.92;132.65;;;24.80;62.50;;;;;;5073343;28;20031;-67
2021/10/29 00:51:34;;;;;;;168.07;76.72;;;24.80;62.70;;;;;;5072604;28;20508;-66
2021/10/29 00:54:01;;;;;;;263.02;142.50;;;24.80;62.90;;;;;;5073466;28;20051;-65
2021/10/29 00:56:29;;;;;;;292.35;144.50;;;25.00;62.60;;;;;;5070921;28;20028;-63
2021/10/29 00:58:56;;;;;;;390.67;221.18;;;25.00;62.50;;;;;;5071651;28;20056;-68
2021/10/29 01:01:27;;;;;;;389.30;216.75;;;25.10;62.40;;;;;;5073541;28;20479;-67
2021/10/29 01:03:54;;;;;;;392.88;222.52;;;25.30;62.00;;;;;;5073115;28;20032;-69
2021/10/29 01:06:22;;;;;;;351.80;204.05;;;25.40;62.30;;;;;;5072836;28;20029;-67
2021/10/29 01:08:49;;;;;;;354.60;198.30;;;25.50;61.80;;;;;;5072961;28;20456;-65
2021/10/29 01:11:18;;;;;;;306.42;171.27;;;25.50;61.70;;;;;;5071750;28;20085;-60
2021/10/29 01:13:50;;;;;;;297.08;170.30;;;25.40;61.90;;;;;;5073198;28;20118;-62
2021/10/29 01:16:19;;;;;;;259.23;145.30;;;25.50;61.80;;;;;;5072252;28;20028;-64
2021/10/29 01:18:47;;;;;;;313.00;182.57;;;25.70;61.40;;;;;;5073245;28;20470;-65
2021/10/29 01:21:16;;;;;;;292.52;166.57;;;25.80;61.30;;;;;;5070302;28;20524;-60
2021/10/29 01:23:47;;;;;;;305.70;172.75;;;25.70;61.60;;;;;;5073415;28;20036;-63
2021/10/29 01:26:17;;;;;;;276.55;159.10;;;25.80;61.10;;;;;;5073530;28;20044;-62
2021/10/29 01:28:46;;;;;;;299.00;162.45;;;25.90;61.40;;;;;;5072898;28;20028;-64
2021/10/29 01:31:16;;;;;;;237.93;138.82;;;25.90;61.00;;;;;;5072463;28;20035;-64
2021/10/29 01:33:44;;;;;;;200.85;117.97;;;26.10;60.60;;;;;;5070765;28;20017;-61
2021/10/29 01:36:11;;;;;;;213.23;117.20;;;26.20;60.40;;;;;;5072661;28;20025;-61
2021/10/29 01:38:41;;;;;;;127.88;69.90;;;26.10;60.80;;;;;;5072345;28;20024;-63
2021/10/29 01:41:10;;;;;;;167.02;94.15;;;26.40;59.80;;;;;;5072231;28;20029;-60
2021/10/29 01:43:46;;;;;;;147.07;85.47;;;26.50;60.00;;;;;;5072032;28;20376;-63
2021/10/29 01:46:15;;;;;;;151.80;87.38;;;26.50;60.00;;;;;;5072103;28;20033;-64
2021/10/29 01:48:49;;;;;;;113.95;60.25;;;26.70;59.50;;;;;;5071973;28;20024;-68
2021/10/29 01:51:17;;;;;;;151.63;79.43;;;26.80;59.30;;;;;;5070128;28;20025;-61
2021/10/29 01:53:45;;;;;;;141.70;79.78;;;26.70;59.50;;;;;;5071626;28;20051;-59
2021/10/29 01:56:13;;;;;;;146.40;86.80;;;26.70;59.30;;;;;;5071203;28;20471;-67
2021/10/29 01:58:40;;;;;;;118.70;68.72;;;26.80;59.40;;;;;;5071657;28;20522;-65
2021/10/29 02:01:08;;;;;;;121.88;67.65;;;26.90;59.00;;;;;;5071815;28;20059;-65
2021/10/29 02:03:35;;;;;;;93.07;55.22;;;27.10;59.00;;;;;;5072029;28;20044;-62
2021/10/29 02:06:04;;;;;;;110.18;67.13;;;27.20;57.60;;;;;;5071666;28;20033;-64
2021/10/29 02:08:32;;;;;;;98.45;56.95;;;27.10;58.70;;;;;;5072035;28;20036;-64
2021/10/29 02:10:59;;;;;;;107.50;56.33;;;27.00;58.80;;;;;;5071994;28;20024;-66
2021/10/29 02:13:27;;;;;;;93.47;54.17;;;27.10;58.90;;;;;;5071287;28;20033;-61
2021/10/29 02:15:55;;;;;;;72.57;40.40;;;27.10;58.70;;;;;;5072053;28;20064;-62
2021/10/29 02:18:22;;;;;;;80.95;47.63;;;27.10;58.50;;;;;;5072307;28;20060;-62
2021/10/29 02:20:49;;;;;;;88.20;47.38;;;27.20;58.90;;;;;;5072082;28;20028;-62
2021/10/29 02:23:17;;;;;;;62.55;36.90;;;27.30;58.70;;;;;;5071861;28;20042;-66
2021/10/29 02:25:46;;;;;;;68.60;38.42;;;27.40;58.10;;;;;;5072177;28;20056;-61
2021/10/29 02:28:15;;;;;;;73.32;42.55;;;27.40;58.10;;;;;;5071947;28;20491;-63
2021/10/29 02:30:43;;;;;;;71.03;41.85;;;27.20;58.60;;;;;;5071876;28;20336;-66
2021/10/29 02:33:10;;;;;;;72.88;40.53;;;27.30;58.50;;;;;;5072669;28;20420;-60
2021/10/29 02:35:38;;;;;;;64.28;39.33;;;27.30;58.80;;;;;;5071829;28;20048;-62
2021/10/29 02:38:05;;;;;;;58.20;33.88;;;27.30;58.70;;;;;;5071097;28;20035;-62
2021/10/29 02:40:33;;;;;;;61.13;34.42;;;27.50;58.30;;;;;;5071629;28;20028;-59
2021/10/29 02:43:01;;;;;;;63.70;38.47;;;27.60;58.40;;;;;;5071718;28;20105;-61
2021/10/29 02:45:29;;;;;;;63.33;34.78;;;27.60;58.10;;;;;;5070543;28;20048;-61
2021/10/29 02:47:57;;;;;;;62.33;36.45;;;27.70;57.90;;;;;;5070292;28;20020;-61
2021/10/29 02:50:25;;;;;;;58.28;32.25;;;27.60;58.10;;;;;;5070298;28;20155;-63
2021/10/29 02:53:18;;;;;;;61.55;33.83;;;27.60;58.40;;;;;;5077070;28;20054;-62
2021/10/29 02:55:45;;;;;;;63.15;36.28;;;27.60;57.80;;;;;;5069271;28;20444;-66
2021/10/29 02:58:13;;;;;;;57.30;31.67;;;27.50;58.50;;;;;;5070591;28;20085;-66
2021/10/29 03:00:40;;;;;;;50.17;31.48;;;27.60;58.10;;;;;;5070427;28;20027;-68
2021/10/29 03:03:07;;;;;;;52.00;31.27;;;27.60;58.00;;;;;;5070550;28;20028;-67
2021/10/29 03:05:39;;;;;;;55.80;30.88;;;27.50;58.10;;;;;;5070379;28;20121;-65
2021/10/29 03:08:07;;;;;;;53.22;32.55;;;27.50;58.70;;;;;;5074052;28;20025;-63
2021/10/29 03:10:35;;;;;;;54.17;33.83;;;27.50;58.20;;;;;;5073905;28;20090;-67
2021/10/29 03:13:02;;;;;;;58.20;35.67;;;27.60;58.60;;;;;;5075158;28;20025;-65
2021/10/29 03:15:30;;;;;;;42.95;27.25;;;27.60;58.70;;;;;;5075165;28;20109;-64
2021/10/29 03:17:58;;;;;;;55.15;31.15;;;27.60;58.50;;;;;;5074999;28;20054;-68
2021/10/29 03:20:26;;;;;;;54.38;32.40;;;27.70;58.30;;;;;;5075218;28;20032;-65
2021/10/29 03:22:53;;;;;;;47.38;29.15;;;27.70;58.20;;;;;;5074679;28;20162;-64
2021/10/29 03:25:21;;;;;;;47.65;28.92;;;27.70;58.20;;;;;;5074785;28;20033;-65
2021/10/29 03:27:48;;;;;;;45.63;28.50;;;27.90;57.90;;;;;;5074622;28;20104;-60
2021/10/29 03:30:15;;;;;;;39.05;24.55;;;27.80;58.00;;;;;;5074478;28;20487;-64
2021/10/29 03:32:44;;;;;;;46.05;26.33;;;27.80;57.20;;;;;;5074094;28;20377;-67
2021/10/29 03:35:11;;;;;;;42.90;27.77;;;27.90;57.60;;;;;;5074016;28;20028;-62
2021/10/29 03:40:38;;;;;;;37.58;24.85;;;27.80;57.70;;;;;;5074297;28;20035;-64
2021/10/29 03:43:25;;;;;;;37.03;20.77;;;27.90;57.50;;;;;;5074693;28;20050;-67
2021/10/29 03:46:01;;;;;;;44.00;25.15;;;27.90;56.80;;;;;;5073879;28;20047;-65
2021/10/29 03:53:39;;;;;;;45.80;27.42;;;27.80;58.50;;;;;;5073586;28;20108;-62
2021/10/29 03:56:11;;;;;;;36.35;22.05;;;27.70;58.20;;;;;;5072734;28;20037;-63
2021/10/29 03:58:39;;;;;;;43.90;23.77;;;27.70;58.00;;;;;;5072302;28;20063;-64
2021/10/29 04:01:06;;;;;;;46.50;25.63;;;27.60;57.10;;;;;;5074009;28;20384;-64
2021/10/29 04:03:34;;;;;;;45.70;21.73;;;27.60;58.40;;;;;;5072434;28;20394;-65
2021/10/29 04:06:01;;;;;;;32.22;20.48;;;27.60;57.20;;;;;;5073657;28;20033;-66
2021/10/29 04:08:29;;;;;;;35.00;21.98;;;27.50;57.80;;;;;;5073420;28;20025;-64
2021/10/29 04:10:57;;;;;;;35.60;21.73;;;27.50;58.20;;;;;;5074056;28;20028;-66
2021/10/29 04:13:33;;;;;;;37.45;21.90;;;27.50;57.80;;;;;;5073847;28;20023;-63
2021/10/29 04:16:02;;;;;;;31.85;20.55;;;27.30;59.30;;;;;;5073830;28;20052;-66
2021/10/29 04:18:32;;;;;;;35.38;20.38;;;27.50;56.90;;;;;;5072749;28;20017;-65
2021/10/29 04:20:59;;;;;;;30.90;19.33;;;27.50;57.80;;;;;;5073338;28;20036;-63
2021/10/29 04:23:27;;;;;;;34.95;17.20;;;27.40;58.00;;;;;;5070088;28;20368;-65
2021/10/29 04:25:55;;;;;;;31.08;19.55;;;27.30;57.80;;;;;;5072933;28;20558;-65
2021/10/29 04:28:22;;;;;;;27.75;16.83;;;27.30;57.90;;;;;;5073450;28;20039;-65
2021/10/29 04:30:52;;;;;;;30.98;16.27;;;27.30;58.20;;;;;;5072217;28;20024;-62
2021/10/29 04:33:20;;;;;;;36.53;19.63;;;27.20;57.30;;;;;;5073456;28;20025;-66
2021/10/29 04:35:51;;;;;;;33.35;20.52;;;27.20;58.10;;;;;;5073157;28;20033;-66
2021/10/29 04:38:19;;;;;;;28.67;16.07;;;27.10;59.00;;;;;;5073052;28;20047;-67
2021/10/29 04:40:47;;;;;;;29.08;15.75;;;27.20;58.60;;;;;;5072560;28;20043;-68
2021/10/29 04:43:14;;;;;;;34.75;18.30;;;27.20;56.80;;;;;;5072816;28;20420;-64
2021/10/29 04:45:43;;;;;;;63.42;17.65;;;27.20;59.10;;;;;;5072570;28;20036;-61
2021/10/29 04:48:10;;;;;;;26.05;14.77;;;27.10;58.60;;;;;;5073134;28;20028;-64
2021/10/29 04:50:37;;;;;;;25.92;14.18;;;27.00;57.80;;;;;;5070951;28;20419;-62
2021/10/29 04:53:05;;;;;;;33.05;15.07;;;27.10;57.70;;;;;;5073007;28;20024;-66
2021/10/29 04:55:33;;;;;;;31.15;15.55;;;27.00;58.40;;;;;;5072568;28;20048;-63
2021/10/29 04:58:01;;;;;;;22.20;14.50;;;27.00;58.40;;;;;;5071389;28;20029;-62
2021/10/29 05:00:29;;;;;;;27.00;14.38;;;27.00;56.50;;;;;;5039057;28;20032;-62
2021/10/29 05:02:58;;;;;;;19.95;12.30;;;27.00;58.80;;;;;;5072007;28;20028;-66
2021/10/29 05:05:25;;;;;;;26.20;13.68;;;27.00;57.50;;;;;;5072982;28;20036;-65
2021/10/29 05:07:57;;;;;;;27.42;14.07;;;26.90;59.30;;;;;;5072745;28;20358;-63
2021/10/29 05:10:25;;;;;;;22.52;10.43;;;26.90;59.30;;;;;;5071122;28;20021;-62
2021/10/29 05:12:52;;;;;;;24.00;12.20;;;26.90;54.80;;;;;;5071886;28;20032;-62
2021/10/29 05:15:20;;;;;;;23.05;13.00;;;26.90;57.70;;;;;;5073163;28;20020;-66
2021/10/29 05:17:48;;;;;;;24.73;11.63;;;26.90;57.70;;;;;;5072480;28;20142;-67
2021/10/29 05:20:17;;;;;;;19.00;10.82;;;26.90;58.30;;;;;;5072794;28;20125;-62
2021/10/29 05:22:45;;;;;;;22.10;10.60;;;26.80;57.70;;;;;;5071453;28;20028;-66
2021/10/29 05:25:12;;;;;;;22.30;11.27;;;26.80;57.50;;;;;;5073022;28;20035;-72
2021/10/29 05:27:40;;;;;;;22.25;11.43;;;26.70;57.00;;;;;;5072800;28;20093;-70
2021/10/29 05:30:09;;;;;;;27.83;10.75;;;26.70;58.10;;;;;;5071995;28;20661;-68
2021/10/29 05:32:38;;;;;;;22.38;9.35;;;26.80;57.60;;;;;;5072444;28;20029;-63
2021/10/29 05:35:06;;;;;;;25.45;11.48;;;26.70;55.90;;;;;;5070757;28;20464;-60
2021/10/29 05:37:35;;;;;;;20.50;9.93;;;26.70;56.10;;;;;;5072465;28;20482;-67
2021/10/29 05:40:05;;;;;;;21.40;10.20;;;26.70;56.10;;;;;;5072705;28;20028;-63
2021/10/29 05:42:35;;;;;;;19.77;9.07;;;26.70;57.20;;;;;;5072714;28;20074;-65
2021/10/29 05:45:05;;;;;;;22.15;9.98;;;26.70;55.70;;;;;;5072783;28;20028;-65
2021/10/29 05:47:33;;;;;;;20.65;8.88;;;26.60;57.50;;;;;;5072928;28;20075;-64
2021/10/29 05:50:01;;;;;;;15.23;8.60;;;26.60;56.10;;;;;;5071956;28;20024;-66
2021/10/29 05:52:31;;;;;;;21.40;9.68;;;26.60;57.10;;;;;;5071831;28;20021;-64
2021/10/29 05:57:28;;;;;;;24.25;9.65;;;26.50;58.70;;;;;;5071548;28;20075;-65
2021/10/29 05:59:56;;;;;;;23.38;9.23;;;26.50;57.40;;;;;;5072576;28;20443;-68
2021/10/29 06:02:24;;;;;;;19.73;8.23;;;26.50;56.90;;;;;;5070634;28;20029;-60
2021/10/29 06:04:52;;;;;;;23.27;8.93;;;26.50;57.10;;;;;;5071700;28;20487;-62
2021/10/29 06:07:19;;;;;;;23.40;9.10;;;26.50;58.00;;;;;;5071635;28;20055;-63
2021/10/29 06:09:46;;;;;;;13.27;7.65;;;26.40;56.80;;;;;;5071610;28;20048;-60
2021/10/29 06:12:14;;;;;;;14.63;8.40;;;26.50;58.00;;;;;;5071819;28;20036;-60
2021/10/29 06:14:41;;;;;;;14.90;8.07;;;26.50;57.70;;;;;;5071386;28;20040;-63
2021/10/29 06:17:16;;;;;;;14.73;7.50;;;26.50;55.60;;;;;;5071599;28;20028;-64
2021/10/29 06:19:44;;;;;;;15.65;7.97;;;26.50;57.90;;;;;;5071404;28;20124;-62
2021/10/29 06:24:40;;;;;;;14.10;7.72;;;26.40;56.70;;;;;;5071504;28;20031;-66
2021/10/29 06:29:51;;;;;;;14.25;8.25;;;26.30;59.30;;;;;;5071806;28;20044;-63
2021/10/29 06:32:20;;;;;;;21.13;8.52;;;26.20;59.00;;;;;;5071295;28;20051;-70
2021/10/29 06:34:48;;;;;;;14.32;7.95;;;26.20;58.70;;;;;;5071081;28;20028;-65
2021/10/29 06:37:16;;;;;;;17.55;7.15;;;26.20;58.80;;;;;;5071098;28;20191;-69
2021/10/29 06:39:48;;;;;;;15.70;7.13;;;26.10;57.40;;;;;;5071771;28;20039;-66
2021/10/29 06:42:21;;;;;;;13.40;6.63;;;26.10;57.40;;;;;;5074214;28;20078;-64
2021/10/29 07:00:53;;;;;;;16.00;6.32;;;25.90;55.90;;;;;;5076380;28;20025;-66
2021/10/29 07:11:43;;;;;;;15.95;6.05;;;25.80;56.20;;;;;;5076468;28;20070;-68
2021/10/29 07:41:51;;;;;;;13.13;4.78;;;25.30;58.80;;;;;;5074571;28;20394;-67
2021/10/29 07:44:26;;;;;;;13.73;5.05;;;25.30;58.50;;;;;;5074717;28;20028;-68
2021/10/29 07:46:54;;;;;;;14.52;4.80;;;25.20;56.80;;;;;;5075075;28;20104;-68
2021/10/29 07:49:27;;;;;;;11.15;4.80;;;25.20;56.30;;;;;;5074736;28;20035;-60
2021/10/29 07:51:56;;;;;;;13.27;4.18;;;25.20;58.50;;;;;;5074066;28;20028;-69
2021/10/29 07:54:25;;;;;;;10.45;4.70;;;25.10;57.40;;;;;;5073116;28;20399;-64
2021/10/29 07:56:53;;;;;;;8.20;4.25;;;25.10;57.70;;;;;;5074174;28;20111;-66
2021/10/29 07:59:22;;;;;;;12.43;4.25;;;25.10;57.50;;;;;;5074986;28;20020;-68
2021/10/29 08:01:52;;;;;;;11.82;4.32;;;25.10;58.20;;;;;;5074515;28;20100;-67
2021/10/29 08:04:22;;;;;;;9.63;4.60;;;25.00;58.50;;;;;;5072401;28;20017;-67
2021/10/29 08:06:53;;;;;;;8.30;3.67;;;25.00;58.90;;;;;;5074194;28;20048;-66
2021/10/29 08:09:21;;;;;;;8.23;4.20;;;24.90;58.50;;;;;;5074554;28;20043;-65
2021/10/29 08:11:49;;;;;;;6.57;3.20;;;24.90;58.10;;;;;;5074006;28;20063;-68
2021/10/29 08:14:16;;;;;;;6.75;3.22;;;24.90;57.50;;;;;;5073890;28;20095;-64
2021/10/29 08:16:44;;;;;;;12.07;3.20;;;24.90;56.00;;;;;;5074076;28;20020;-64
2021/10/29 08:19:12;;;;;;;7.72;4.03;;;24.90;57.90;;;;;;5074608;28;20031;-66
2021/10/29 08:21:39;;;;;;;8.75;3.45;;;24.90;58.90;;;;;;5074664;28;20103;-66
2021/10/29 08:24:10;;;;;;;10.90;4.07;;;24.80;54.90;;;;;;5073932;28;20020;-69
2021/10/29 08:26:37;;;;;;;8.90;3.58;;;24.80;57.50;;;;;;5074039;28;20467;-66
2021/10/29 08:29:05;;;;;;;11.02;3.78;;;24.80;56.80;;;;;;5073964;28;20100;-64
2021/10/29 08:31:32;;;;;;;7.65;3.88;;;24.80;57.60;;;;;;5074011;28;20033;-67
2021/10/29 08:34:01;;;;;;;4.85;2.97;;;24.70;59.00;;;;;;5072322;28;20052;-65
2021/10/29 08:36:29;;;;;;;6.60;3.13;;;24.70;58.80;;;;;;5073875;28;20103;-66
2021/10/29 08:38:57;;;;;;;9.07;3.25;;;24.60;59.00;;;;;;5073937;28;20100;-66
2021/10/29 08:41:28;;;;;;;8.50;3.33;;;24.60;56.30;;;;;;5073596;28;20025;-66
2021/10/29 08:43:56;;;;;;;8.63;3.10;;;24.60;58.30;;;;;;5073748;28;20154;-68
2021/10/29 08:46:27;;;;;;;10.40;3.80;;;24.60;57.30;;;;;;5073693;28;20035;-68
2021/10/29 08:48:55;;;;;;;4.72;3.03;;;24.60;57.70;;;;;;5074064;28;20055;-68
2021/10/29 08:51:23;;;;;;;4.93;3.03;;;24.50;57.80;;;;;;5074022;28;20031;-67
2021/10/29 08:53:56;;;;;;;9.23;3.35;;;24.50;59.90;;;;;;5073600;28;20035;-63
2021/10/29 08:56:26;;;;;;;6.28;3.45;;;24.50;57.80;;;;;;5073901;28;20109;-68
2021/10/29 08:59:19;;;;;;;6.78;2.67;;;24.50;58.70;;;;;;5073664;28;20028;-66
2021/10/29 09:04:57;;;;;;;6.18;3.10;;;24.40;59.30;;;;;;5072814;28;20497;-64
2021/10/29 09:32:38;;;;;;;7.07;3.22;;;24.20;59.90;;;;;;5073072;28;20395;-65
2021/10/29 09:35:13;;;;;;;5.30;2.75;;;24.20;60.20;;;;;;5071216;28;20024;-66
2021/10/29 09:38:04;;;;;;;7.57;2.83;;;24.20;56.70;;;;;;5073111;28;20021;-66
2021/10/29 09:40:56;;;;;;;6.82;2.85;;;24.10;59.10;;;;;;5072896;28;20028;-68
2021/10/29 09:43:24;;;;;;;6.35;3.25;;;24.10;57.70;;;;;;5073001;28;20025;-66
2021/10/29 09:46:04;;;;;;;10.88;4.28;;;24.10;59.10;;;;;;5073178;28;20361;-65
2021/10/29 09:48:48;;;;;;;6.90;3.50;;;24.10;60.50;;;;;;5071140;28;20029;-63
2021/10/29 09:51:20;;;;;;;6.25;2.95;;;24.10;60.80;;;;;;5072731;28;20145;-63
2021/10/29 09:54:38;;;;;;;;;;;24.10;58.30;;;;;;5072610;28;20111;-66
2021/10/29 09:56:48;;;;;;;4.13;2.65;;;24.10;60.70;;;;;;5064497;28;19908;-66
2021/10/29 09:59:16;;;;;;;6.35;2.85;;;24.00;62.30;;;;;;5072888;28;20021;-67
2021/10/29 10:01:44;;;;;;;8.63;3.22;;;24.00;57.80;;;;;;5071330;28;20078;-66
2021/10/29 10:04:12;;;;;;;6.35;3.55;;;24.00;59.70;;;;;;5072256;28;20126;-62
2021/10/29 10:06:41;;;;;;;6.38;2.42;;;24.00;62.10;;;;;;5071132;28;20386;-65
2021/10/29 10:09:10;;;;;;;7.65;3.42;;;24.00;59.80;;;;;;5072100;28;20075;-64
2021/10/29 10:11:43;;;;;;;6.05;2.80;;;24.00;62.00;;;;;;5071113;28;20049;-66
2021/10/29 10:14:12;;;;;;;9.77;2.80;;;24.00;59.00;;;;;;5072581;28;20017;-67
2021/10/29 10:16:42;;;;;;;5.90;2.50;;;24.00;57.70;;;;;;5070104;28;20435;-65
2021/10/29 10:19:10;;;;;;;4.22;2.38;;;24.00;59.40;;;;;;5072216;28;20467;-66
2021/10/29 10:21:41;;;;;;;4.95;2.20;;;24.00;59.90;;;;;;5070110;28;20028;-67
2021/10/29 10:24:14;;;;;;;6.30;2.15;;;24.00;59.50;;;;;;5071683;28;20433;-67
2021/10/29 10:29:48;;;;;;;5.53;2.38;;;23.90;56.30;;;;;;5072249;28;20021;-64
2021/10/29 10:41:03;;;;;;;5.70;2.55;;;23.90;57.10;;;;;;5072343;28;20043;-68
2021/10/29 10:43:43;;;;;;;8.68;2.47;;;23.90;56.30;;;;;;5071839;28;20041;-67
2021/10/29 10:46:18;;;;;;;5.65;2.30;;;23.80;60.50;;;;;;5071286;28;20040;-65
2021/10/29 10:49:07;;;;;;;6.55;2.95;;;23.80;56.80;;;;;;5071594;28;20024;-65
2021/10/29 10:54:14;;;;;;;7.45;3.00;;;23.70;57.40;;;;;;5071864;28;20028;-61
2021/10/29 11:10:59;;;;;;;3.58;2.05;;;23.70;58.80;;;;;;5071414;28;20028;-63
2021/10/29 11:13:47;;;;;;;10.50;2.70;;;23.70;59.80;;;;;;5071110;28;20035;-65
2021/10/29 11:16:26;;;;;;;3.10;2.03;;;23.60;59.10;;;;;;5071815;28;20036;-62
2021/10/29 11:19:05;;;;;;;4.35;2.38;;;23.60;58.70;;;;;;5071601;28;20017;-65
2021/10/29 11:21:36;;;;;;;4.20;1.85;;;23.60;60.10;;;;;;5072027;28;20078;-67
2021/10/29 11:24:07;;;;;;;3.60;1.55;;;23.50;56.90;;;;;;5071016;28;20437;-68
2021/10/29 11:26:41;;;;;;;6.32;1.75;;;23.50;56.60;;;;;;5071677;28;20043;-67
2021/10/29 11:29:09;;;;;;;5.28;2.13;;;23.50;57.00;;;;;;5075404;28;20108;-66
2021/10/29 11:31:43;;;;;;;3.95;2.10;;;23.50;60.20;;;;;;5076057;28;20078;-62
2021/10/29 11:34:14;;;;;;;3.70;2.10;;;23.50;58.90;;;;;;5075341;28;20475;-67
2021/10/29 11:36:47;;;;;;;3.28;1.95;;;23.50;58.10;;;;;;5075293;28;20040;-66
2021/10/29 11:39:15;;;;;;;2.83;1.67;;;23.50;59.20;;;;;;5075430;28;20077;-67
2021/10/29 11:41:46;;;;;;;4.70;1.92;;;23.40;60.10;;;;;;5075535;28;20033;-66
2021/10/29 11:44:17;;;;;;;4.55;2.05;;;23.40;59.20;;;;;;5075361;28;20052;-67
2021/10/29 11:46:46;;;;;;;3.15;1.60;;;23.40;56.90;;;;;;5075163;28;20039;-66
2021/10/29 11:49:15;;;;;;;4.05;1.60;;;23.30;59.90;;;;;;5074178;28;20025;-65
2021/10/29 11:51:45;;;;;;;5.72;2.13;;;23.40;58.00;;;;;;5075403;28;20029;-65
2021/10/29 11:54:28;;;;;;;3.47;1.95;;;23.30;61.10;;;;;;5075088;28;20032;-65
2021/10/29 12:07:23;;;;;;;3.50;1.88;;;23.20;59.50;;;;;;5075617;28;20493;-66
2021/10/29 12:09:56;;;;;;;6.70;2.00;;;23.20;59.80;;;;;;5075098;28;20473;-66
2021/10/29 12:12:29;;;;;;;3.45;1.80;;;23.20;59.70;;;;;;5073784;28;20025;-64
2021/10/29 12:15:07;;;;;;;5.45;2.03;;;23.20;59.90;;;;;;5075194;28;20382;-66
2021/10/29 12:18:00;;;;;;;2.90;1.85;;;23.20;60.30;;;;;;5074443;28;20032;-65
2021/10/29 12:20:33;;;;;;;3.10;1.90;;;23.20;60.20;;;;;;5074297;28;20059;-69
2021/10/29 12:23:13;;;;;;;2.88;1.83;;;23.10;60.40;;;;;;5073147;28;20052;-65
2021/10/29 12:28:51;;;;;;;4.28;1.80;;;23.10;63.30;;;;;;5074910;28;20364;-67
2021/10/29 12:31:28;;;;;;;2.97;1.70;;;23.10;62.20;;;;;;5073841;28;20032;-66
2021/10/29 12:37:04;;;;;;;4.90;1.92;;;23.00;62.90;;;;;;5073907;28;20109;-68
2021/10/29 12:53:54;;;;;;;2.58;1.50;;;22.90;63.00;;;;;;5073022;28;20043;-63
2021/10/29 13:01:25;;;;;;;3.30;1.75;;;22.90;62.70;;;;;;5070598;28;20514;-63
2021/10/29 13:02:21;;;;;;;2.30;1.65;;;22.80;63.00;;;;;;5069206;28;20029;-59
2021/10/29 13:04:53;;;;;;;4.97;1.77;;;22.80;63.30;;;;;;5068089;28;20028;-64
2021/10/29 13:07:28;;;;;;;2.05;1.40;;;22.80;63.00;;;;;;5070116;28;20071;-63
2021/10/29 13:10:10;;;;;;;3.90;1.73;;;22.80;62.90;;;;;;5070144;28;20078;-61
2021/10/29 13:15:18;;;;;;;4.53;1.80;;;22.80;62.80;;;;;;5065813;28;20055;-63
2021/10/29 13:17:57;;;;;;;2.63;1.60;;;22.70;63.10;;;;;;5072151;28;20032;-68
2021/10/29 13:37:43;;;;;;;2.25;1.55;;;22.60;63.00;;;;;;5048281;28;20036;-64
2021/10/29 13:53:53;;;;;;;1.88;1.35;;;22.50;62.40;;;;;;5071665;28;20420;-61
2021/10/29 13:56:27;;;;;;;5.22;1.40;;;22.50;62.40;;;;;;5064801;28;20032;-61
2021/10/29 13:59:15;;;;;;;1.50;1.30;;;22.50;62.50;;;;;;5071911;28;20028;-66
2021/10/29 14:29:23;;;;;;;4.53;1.40;;;22.30;62.00;;;;;;5070558;28;20044;-60
2021/10/29 14:31:54;;;;;;;3.53;1.25;;;22.30;62.30;;;;;;5071236;28;20386;-62
2021/10/29 14:34:35;;;;;;;1.45;1.05;;;22.30;61.80;;;;;;5071013;28;20021;-63
2021/10/29 14:37:30;;;;;;;2.10;1.15;;;22.30;61.40;;;;;;5066659;28;20048;-62
2021/10/29 14:40:05;;;;;;;1.98;1.00;;;22.20;61.70;;;;;;5069572;28;20155;-61
2021/10/29 14:42:37;;;;;;;;;;;22.20;61.50;;;;;;5068241;28;20028;-60
2021/10/29 15:06:26;;;;;;;1.73;0.98;;;22.00;61.40;;;;;;5074049;28;20040;-65
2021/10/29 15:25:30;;;;;;;1.15;0.90;;;21.90;61.40;;;;;;5074039;28;20024;-61
2021/10/29 15:33:22;;;;;;;0.80;0.57;;;21.80;61.40;;;;;;5075076;28;20670;-63
2021/10/29 15:46:41;;;;;;;2.00;0.80;;;21.80;61.30;;;;;;5073032;28;20044;-62
2021/10/29 15:51:38;;;;;;;1.02;0.80;;;21.70;61.20;;;;;;5069915;28;20090;-65
2021/10/29 15:54:09;;;;;;;1.25;0.95;;;21.70;61.10;;;;;;5071895;28;20036;-65
2021/10/29 15:56:48;;;;;;;1.58;0.80;;;21.70;61.20;;;;;;5073123;28;20027;-66
2021/10/29 15:59:31;;;;;;;0.93;0.70;;;21.70;61.20;;;;;;5072742;28;20117;-65
2021/10/29 16:02:32;;;;;;;2.75;0.82;;;21.70;61.20;;;;;;5072891;28;20025;-65
2021/10/29 16:18:47;;;;;;;1.02;0.73;;;21.60;61.00;;;;;;5070240;28;20082;-61
2021/10/29 16:21:14;;;;;;;1.55;0.60;;;21.60;61.00;;;;;;5071954;28;20034;-61
2021/10/29 16:23:41;;;;;;;2.22;1.00;;;21.60;61.10;;;;;;5069554;28;20024;-62
2021/10/29 16:26:12;;;;;;;1.77;0.75;;;21.50;60.80;;;;;;5071788;28;20039;-60
2021/10/29 16:28:42;;;;;;;1.38;0.75;;;21.50;60.90;;;;;;5071927;28;20032;-63
2021/10/29 16:31:12;;;;;;;1.52;0.70;;;21.50;60.80;;;;;;5068914;28;20384;-62
2021/10/29 16:33:40;;;;;;;0.50;0.50;;;21.50;60.80;;;;;;5073057;28;20021;-61
2021/10/29 16:36:07;;;;;;;1.10;0.57;;;21.60;60.80;;;;;;5071780;28;20035;-64
2021/10/29 16:38:35;;;;;;;0.70;0.60;;;21.50;60.80;;;;;;5072387;28;20078;-60
2021/10/29 16:41:02;;;;;;;0.80;0.52;;;21.50;60.70;;;;;;5069128;28;20032;-66
2021/10/29 16:43:35;;;;;;;5.50;0.52;;;21.50;60.60;;;;;;5072672;28;20382;-64
2021/10/29 16:46:05;;;;;;;0.47;0.40;;;21.50;60.60;;;;;;5071623;28;20064;-67
2021/10/29 16:48:32;;;;;;;1.65;1.13;;;21.50;60.50;;;;;;5072357;28;20020;-62
2021/10/29 16:51:00;;;;;;;0.70;0.45;;;21.50;60.50;;;;;;5067798;28;20028;-64
2021/10/29 16:53:27;;;;;;;1.23;0.57;;;21.50;60.60;;;;;;5072504;28;20031;-62
2021/10/29 16:55:55;;;;;;;0.90;0.40;;;21.40;60.40;;;;;;5070933;28;20053;-59
2021/10/29 16:58:22;;;;;;;0.68;0.60;;;21.40;60.40;;;;;;5072706;28;20021;-60
2021/10/29 17:00:55;;;;;;;1.23;0.60;;;21.40;60.40;;;;;;5067308;28;20046;-61
2021/10/29 17:03:24;;;;;;;1.75;0.60;;;21.40;60.30;;;;;;5072283;28;20479;-60
2021/10/29 17:05:52;;;;;;;0.57;0.43;;;21.40;60.30;;;;;;5071115;28;20097;-62
2021/10/29 17:08:19;;;;;;;0.65;0.45;;;21.40;60.30;;;;;;5072150;28;20024;-60
2021/10/29 17:10:47;;;;;;;0.70;0.50;;;21.40;60.30;;;;;;5067494;28;20024;-64
2021/10/29 17:13:14;;;;;;;0.82;0.43;;;21.40;60.20;;;;;;5068132;28;20383;-61
2021/10/29 17:15:42;;;;;;;1.02;0.50;;;21.40;60.20;;;;;;5071463;28;20048;-59
2021/10/29 17:18:10;;;;;;;1.20;0.68;;;21.30;60.10;;;;;;5071091;28;20086;-62
2021/10/29 17:20:38;;;;;;;0.80;0.50;;;21.30;60.10;;;;;;5067086;28;20348;-60
2021/10/29 17:23:06;;;;;;;0.82;0.43;;;21.30;60.00;;;;;;5071607;28;20032;-61
2021/10/29 17:25:33;;;;;;;0.98;0.63;;;21.30;60.20;;;;;;5071253;28;20043;-61
2021/10/29 17:28:01;;;;;;;1.45;0.63;;;21.30;60.00;;;;;;5071814;28;20027;-65
2021/10/29 17:30:28;;;;;;;1.83;0.50;;;21.30;60.10;;;;;;5066732;28;20033;-62
2021/10/29 17:32:58;;;;;;;0.98;0.50;;;21.30;60.00;;;;;;5070595;28;20483;-62
2021/10/29 17:35:25;;;;;;;1.30;0.30;;;21.30;60.00;;;;;;5071119;28;20590;-61
2021/10/29 17:37:53;;;;;;;1.23;0.57;;;21.20;59.90;;;;;;5071475;28;20042;-61
2021/10/29 17:40:20;;;;;;;1.40;0.70;;;21.30;60.10;;;;;;5066739;28;20497;-60
2021/10/29 17:42:47;;;;;;;3.95;0.55;;;21.20;59.90;;;;;;5071236;28;20031;-61